John H. — WAC6768 — position and weather

sailwx.info

Track history (hours):
 
Tides and Currents Weather Stations Pressure Air Temp Water Temp Dewpoint Dewpoint Depression Visibility Wind Speed Wind Dir Waves Ship Positions

John H.

Owner: CROSS SOUND FERRY SERVICE INC, NEW LOUDON, CT. More information available from US FCC via Universal Licensing System and Coast Guard Vessel Documentation Center.

Last reported at 2015-May-28 00:33 UTC. Time now 2015-May-28 08:10 UTC.
Position N 41°19' W 072°05'.

Length 70 m.

Type: Passenger vessel. MMSI: 366934890.

Date/timePositionNaut miles runAvg speedWind from/ knotsBaromVisibWave heightAir tempDewpointWater temp
2015-May-28 00:33N 41°19' W 072°05'1212.4
2015-May-27 23:33N 41°09' W 072°14'0 0.2
2015-May-27 22:33N 41°09' W 072°14'9 8.8
2015-May-27 21:33N 41°16' W 072°07'5 5.3
2015-May-27 20:33N 41°21' W 072°06'8 8.5
2015-May-27 19:33N 41°13' W 072°10'6 5.5
2015-May-27 18:33N 41°09' W 072°14'8 8.0
2015-May-27 17:33N 41°16' W 072°08'6 6.0
2015-May-27 16:33N 41°21' W 072°06'1010.1
2015-May-27 15:33N 41°12' W 072°11'4 3.8
2015-May-27 14:33N 41°09' W 072°14'1110.5
2015-May-27 13:33N 41°17' W 072°06'4 3.9
2015-May-27 12:33N 41°21' W 072°06'9 8.7
2015-May-27 11:33N 41°13' W 072°10'5 5.3
2015-May-27 10:33N 41°09' W 072°14'2 0.2
2015-May-27 00:33N 41°11' W 072°13'1211.8
2015-May-26 23:34N 41°21' W 072°05'0 0.1
2015-May-26 22:33N 41°21' W 072°06'8 8.5
2015-May-26 21:33N 41°13' W 072°10'5 5.5
2015-May-26 20:34N 41°09' W 072°14'1010.4
2015-May-26 19:33N 41°17' W 072°06'4 4.0
2015-May-26 18:33N 41°21' W 072°06'8 8.5
2015-May-26 17:34N 41°13' W 072°10'6 5.6
2015-May-26 16:33N 41°09' W 072°14'10 9.5
2015-May-26 15:33N 41°17' W 072°07'5 4.7
2015-May-26 14:33N 41°21' W 072°06'8 8.1
2015-May-26 13:33N 41°14' W 072°09'6 5.9
2015-May-26 12:33N 41°09' W 072°14'9 8.7
2015-May-26 11:34N 41°16' W 072°07'5 5.5
2015-May-26 10:34N 41°21' W 072°06'0 0.0
2015-May-26 02:33N 41°21' W 072°06'1110.6
2015-May-26 01:33N 41°12' W 072°12'3 3.3
2015-May-26 00:34N 41°09' W 072°14'1010.0
2015-May-25 23:33N 41°17' W 072°06'4 4.3
2015-May-25 22:33N 41°21' W 072°06'9 8.7
2015-May-25 21:33N 41°13' W 072°10'5 5.3
2015-May-25 20:34N 41°09' W 072°14'1010.3
2015-May-25 19:33N 41°17' W 072°06'4 4.0
2015-May-25 18:33N 41°21' W 072°06'10 9.5
2015-May-25 17:33N 41°13' W 072°11'4 4.4
2015-May-25 16:33N 41°09' W 072°14'9 8.9
2015-May-25 15:34N 41°16' W 072°07'5 5.2
2015-May-25 14:33N 41°21' W 072°06'8 8.2
2015-May-25 13:34N 41°14' W 072°09'6 5.8
2015-May-25 12:34N 41°09' W 072°14'8 8.4
2015-May-25 11:33N 41°16' W 072°07'6 5.8
2015-May-25 10:33N 41°21' W 072°06'0 0.0
2015-May-25 02:16N 41°21' W 072°06'6 7.8
2015-May-25 01:33N 41°16' W 072°06'9 9.0
2015-May-25 00:34N 41°09' W 072°14'9 9.2
2015-May-24 23:33N 41°16' W 072°07'5 5.0
2015-May-24 22:33N 41°21' W 072°06'9 8.9
2015-May-24 21:33N 41°13' W 072°10'5 5.1
2015-May-24 20:33N 41°09' W 072°14'9 8.7
2015-May-24 19:33N 41°16' W 072°07'5 5.4
2015-May-24 18:33N 41°21' W 072°06'9 8.8
2015-May-24 17:33N 41°13' W 072°10'5 5.2
2015-May-24 16:33N 41°09' W 072°14'9 9.0
2015-May-24 15:34N 41°16' W 072°07'5 5.2
2015-May-24 14:33N 41°21' W 072°06'8 8.2
2015-May-24 13:33N 41°14' W 072°09'6 6.0
2015-May-24 12:33N 41°09' W 072°14'1010.0
2015-May-24 11:33N 41°17' W 072°06'4 4.4
2015-May-24 10:33N 41°21' W 072°06'0 0.0
2015-May-24 02:08N 41°21' W 072°06'5 8.4
2015-May-24 01:34N 41°17' W 072°06'10 9.7
2015-May-24 00:33N 41°09' W 072°14'8 8.2
2015-May-23 23:33N 41°16' W 072°08'6 5.9
2015-May-23 22:33N 41°21' W 072°06'8 8.1
2015-May-23 21:33N 41°14' W 072°09'6 6.0
2015-May-23 20:33N 41°09' W 072°14'8 8.4
2015-May-23 19:33N 41°16' W 072°08'6 5.6
2015-May-23 18:33N 41°21' W 072°06'9 8.7
2015-May-23 17:33N 41°13' W 072°10'5 5.2
2015-May-23 16:33N 41°09' W 072°14'10 9.9
2015-May-23 15:34N 41°17' W 072°06'4 4.4
2015-May-23 14:33N 41°21' W 072°06'8 8.3
2015-May-23 13:33N 41°14' W 072°09'6 5.9
2015-May-23 12:33N 41°09' W 072°14'8 8.3
2015-May-23 11:33N 41°16' W 072°08'6 5.8
2015-May-23 10:33N 41°21' W 072°06'0 0.0
2015-May-23 02:05N 41°21' W 072°06'5 9.5
2015-May-23 01:33N 41°16' W 072°06'9 9.4
2015-May-23 00:33N 41°09' W 072°14'8 8.4
2015-May-22 23:33N 41°16' W 072°08'6 5.8
2015-May-22 22:33N 41°21' W 072°06'8 7.8
2015-May-22 21:33N 41°14' W 072°09'6 6.4
2015-May-22 20:33N 41°09' W 072°14'8 8.3
2015-May-22 19:33N 41°16' W 072°08'6 5.7
2015-May-22 18:33N 41°21' W 072°06'9 8.5
2015-May-22 17:33N 41°13' W 072°10'5 5.5
2015-May-22 16:33N 41°09' W 072°14'8 8.0
2015-May-22 15:33N 41°16' W 072°08'6 6.0
2015-May-22 14:33N 41°21' W 072°06'8 7.9
2015-May-22 13:34N 41°14' W 072°09'6 6.2
2015-May-22 12:33N 41°09' W 072°14'8 8.3
2015-May-22 11:33N 41°16' W 072°08'6 5.8
2015-May-22 10:34N 41°21' W 072°06'0 0.0
2015-May-22 00:15N 41°21' W 072°06'710.7
2015-May-21 23:33N 41°14' W 072°09'7 6.7
2015-May-21 22:33N 41°09' W 072°14'9 8.9
2015-May-21 21:34N 41°16' W 072°07'5 5.2
2015-May-21 20:33N 41°21' W 072°06'9 8.6
2015-May-21 19:33N 41°13' W 072°10'5 5.4
2015-May-21 18:33N 41°09' W 072°14'8 8.4
2015-May-21 17:33N 41°16' W 072°08'6 5.7
2015-May-21 16:33N 41°21' W 072°06'9 8.8
2015-May-21 15:33N 41°13' W 072°10'5 5.1
2015-May-21 14:33N 41°09' W 072°14'8 8.1
2015-May-21 13:34N 41°16' W 072°08'6 5.9
2015-May-21 12:33N 41°21' W 072°06'8 8.1
2015-May-21 11:34N 41°14' W 072°09'6 6.0
2015-May-21 10:33N 41°09' W 072°14'0 0.0
2015-May-21 00:28N 41°09' W 072°14'8 8.8
2015-May-20 23:33N 41°16' W 072°08'6 6.0
2015-May-20 22:33N 41°21' W 072°06'8 8.3
2015-May-20 21:33N 41°13' W 072°09'6 5.8
2015-May-20 20:33N 41°09' W 072°14'9 8.5
2015-May-20 19:33N 41°16' W 072°07'6 5.7
2015-May-20 18:33N 41°21' W 072°06'9 8.6
2015-May-20 17:33N 41°13' W 072°10'5 5.4
2015-May-20 16:33N 41°09' W 072°14'10 9.7
2015-May-20 15:33N 41°17' W 072°06'5 4.6
2015-May-20 14:33N 41°21' W 072°06'9 9.3
2015-May-20 13:33N 41°13' W 072°10'5 4.7
2015-May-20 12:33N 41°09' W 072°14'9 9.1
2015-May-20 11:33N 41°16' W 072°07'5 5.0
2015-May-20 10:33N 41°21' W 072°06'3 0.3
2015-May-20 00:34N 41°18' W 072°05'1211.5
2015-May-19 23:33N 41°09' W 072°14'0 0.1
2015-May-19 22:33N 41°09' W 072°14'9 8.6
2015-May-19 21:34N 41°16' W 072°07'6 5.5
2015-May-19 20:33N 41°21' W 072°06'8 8.4
2015-May-19 19:33N 41°14' W 072°10'6 5.6
2015-May-19 18:33N 41°09' W 072°14'9 8.7
2015-May-19 17:34N 41°16' W 072°07'5 5.5
2015-May-19 16:33N 41°21' W 072°06'9 8.9
2015-May-19 15:33N 41°13' W 072°10'5 5.2
2015-May-19 14:33N 41°09' W 072°14'9 9.2
2015-May-19 13:33N 41°16' W 072°07'5 5.0
2015-May-19 12:33N 41°21' W 072°06'8 8.2
2015-May-19 11:34N 41°14' W 072°09'6 5.9
2015-May-19 10:34N 41°09' W 072°14'0 0.0
2015-May-19 01:13N 41°09' W 072°14'2 2.4
2015-May-19 00:34N 41°11' W 072°14'1212.3
2015-May-18 23:34N 41°21' W 072°06'0 0.0
2015-May-18 22:34N 41°21' W 072°06'9 8.7
2015-May-18 21:34N 41°13' W 072°10'5 5.2
2015-May-18 20:33N 41°09' W 072°14'9 8.8
2015-May-18 19:33N 41°16' W 072°07'5 5.2
2015-May-18 18:33N 41°21' W 072°06'8 8.5
2015-May-18 17:34N 41°13' W 072°10'6 5.5
2015-May-18 16:33N 41°09' W 072°14'1010.0
2015-May-18 15:33N 41°17' W 072°06'4 4.3
2015-May-18 14:33N 41°21' W 072°06'9 8.7
2015-May-18 13:33N 41°13' W 072°10'5 5.2
2015-May-18 12:33N 41°09' W 072°14'10 9.5
2015-May-18 11:33N 41°17' W 072°06'5 4.7
2015-May-18 10:33N 41°21' W 072°06'0 0.0
2015-May-18 02:10N 41°21' W 072°06'5 8.5
2015-May-18 01:33N 41°16' W 072°07'9 9.1
2015-May-18 00:33N 41°09' W 072°14'  
Track history (hours):
 
Tides and Currents Weather Stations Pressure Air Temp Water Temp Dewpoint Dewpoint Depression Visibility Wind Speed Wind Dir Waves Ship Positions

John H.

Owner: CROSS SOUND FERRY SERVICE INC, NEW LOUDON, CT. More information available from US FCC via Universal Licensing System and Coast Guard Vessel Documentation Center.

Last reported at 2015-May-28 00:33 UTC. Time now 2015-May-28 08:10 UTC.
Position N 41°19' W 072°05'.

Length 70 m.

Type: Passenger vessel. MMSI: 366934890.

Date/timePositionNaut miles runAvg speedWind from/ knotsBaromVisibWave heightAir tempDewpointWater temp
2015-May-28 00:33N 41°19' W 072°05'1212.4
2015-May-27 23:33N 41°09' W 072°14'0 0.2
2015-May-27 22:33N 41°09' W 072°14'9 8.8
2015-May-27 21:33N 41°16' W 072°07'5 5.3
2015-May-27 20:33N 41°21' W 072°06'8 8.5
2015-May-27 19:33N 41°13' W 072°10'6 5.5
2015-May-27 18:33N 41°09' W 072°14'8 8.0
2015-May-27 17:33N 41°16' W 072°08'6 6.0
2015-May-27 16:33N 41°21' W 072°06'1010.1
2015-May-27 15:33N 41°12' W 072°11'4 3.8
2015-May-27 14:33N 41°09' W 072°14'1110.5
2015-May-27 13:33N 41°17' W 072°06'4 3.9
2015-May-27 12:33N 41°21' W 072°06'9 8.7
2015-May-27 11:33N 41°13' W 072°10'5 5.3
2015-May-27 10:33N 41°09' W 072°14'2 0.2
2015-May-27 00:33N 41°11' W 072°13'1211.8
2015-May-26 23:34N 41°21' W 072°05'0 0.1
2015-May-26 22:33N 41°21' W 072°06'8 8.5
2015-May-26 21:33N 41°13' W 072°10'5 5.5
2015-May-26 20:34N 41°09' W 072°14'1010.4
2015-May-26 19:33N 41°17' W 072°06'4 4.0
2015-May-26 18:33N 41°21' W 072°06'8 8.5
2015-May-26 17:34N 41°13' W 072°10'6 5.6
2015-May-26 16:33N 41°09' W 072°14'10 9.5
2015-May-26 15:33N 41°17' W 072°07'5 4.7
2015-May-26 14:33N 41°21' W 072°06'8 8.1
2015-May-26 13:33N 41°14' W 072°09'6 5.9
2015-May-26 12:33N 41°09' W 072°14'9 8.7
2015-May-26 11:34N 41°16' W 072°07'5 5.5
2015-May-26 10:34N 41°21' W 072°06'0 0.0
2015-May-26 02:33N 41°21' W 072°06'1110.6
2015-May-26 01:33N 41°12' W 072°12'3 3.3
2015-May-26 00:34N 41°09' W 072°14'1010.0
2015-May-25 23:33N 41°17' W 072°06'4 4.3
2015-May-25 22:33N 41°21' W 072°06'9 8.7
2015-May-25 21:33N 41°13' W 072°10'5 5.3
2015-May-25 20:34N 41°09' W 072°14'1010.3
2015-May-25 19:33N 41°17' W 072°06'4 4.0
2015-May-25 18:33N 41°21' W 072°06'10 9.5
2015-May-25 17:33N 41°13' W 072°11'4 4.4
2015-May-25 16:33N 41°09' W 072°14'9 8.9
2015-May-25 15:34N 41°16' W 072°07'5 5.2
2015-May-25 14:33N 41°21' W 072°06'8 8.2
2015-May-25 13:34N 41°14' W 072°09'6 5.8
2015-May-25 12:34N 41°09' W 072°14'8 8.4
2015-May-25 11:33N 41°16' W 072°07'6 5.8
2015-May-25 10:33N 41°21' W 072°06'0 0.0
2015-May-25 02:16N 41°21' W 072°06'6 7.8
2015-May-25 01:33N 41°16' W 072°06'9 9.0
2015-May-25 00:34N 41°09' W 072°14'9 9.2
2015-May-24 23:33N 41°16' W 072°07'5 5.0
2015-May-24 22:33N 41°21' W 072°06'9 8.9
2015-May-24 21:33N 41°13' W 072°10'5 5.1
2015-May-24 20:33N 41°09' W 072°14'9 8.7
2015-May-24 19:33N 41°16' W 072°07'5 5.4
2015-May-24 18:33N 41°21' W 072°06'9 8.8
2015-May-24 17:33N 41°13' W 072°10'5 5.2
2015-May-24 16:33N 41°09' W 072°14'9 9.0
2015-May-24 15:34N 41°16' W 072°07'5 5.2
2015-May-24 14:33N 41°21' W 072°06'8 8.2
2015-May-24 13:33N 41°14' W 072°09'6 6.0
2015-May-24 12:33N 41°09' W 072°14'1010.0
2015-May-24 11:33N 41°17' W 072°06'4 4.4
2015-May-24 10:33N 41°21' W 072°06'0 0.0
2015-May-24 02:08N 41°21' W 072°06'5 8.4
2015-May-24 01:34N 41°17' W 072°06'10 9.7
2015-May-24 00:33N 41°09' W 072°14'8 8.2
2015-May-23 23:33N 41°16' W 072°08'6 5.9
2015-May-23 22:33N 41°21' W 072°06'8 8.1
2015-May-23 21:33N 41°14' W 072°09'6 6.0
2015-May-23 20:33N 41°09' W 072°14'8 8.4
2015-May-23 19:33N 41°16' W 072°08'6 5.6
2015-May-23 18:33N 41°21' W 072°06'9 8.7
2015-May-23 17:33N 41°13' W 072°10'5 5.2
2015-May-23 16:33N 41°09' W 072°14'10 9.9
2015-May-23 15:34N 41°17' W 072°06'4 4.4
2015-May-23 14:33N 41°21' W 072°06'8 8.3
2015-May-23 13:33N 41°14' W 072°09'6 5.9
2015-May-23 12:33N 41°09' W 072°14'8 8.3
2015-May-23 11:33N 41°16' W 072°08'6 5.8
2015-May-23 10:33N 41°21' W 072°06'0 0.0
2015-May-23 02:05N 41°21' W 072°06'5 9.5
2015-May-23 01:33N 41°16' W 072°06'9 9.4
2015-May-23 00:33N 41°09' W 072°14'8 8.4
2015-May-22 23:33N 41°16' W 072°08'6 5.8
2015-May-22 22:33N 41°21' W 072°06'8 7.8
2015-May-22 21:33N 41°14' W 072°09'6 6.4
2015-May-22 20:33N 41°09' W 072°14'8 8.3
2015-May-22 19:33N 41°16' W 072°08'6 5.7
2015-May-22 18:33N 41°21' W 072°06'9 8.5
2015-May-22 17:33N 41°13' W 072°10'5 5.5
2015-May-22 16:33N 41°09' W 072°14'8 8.0
2015-May-22 15:33N 41°16' W 072°08'6 6.0
2015-May-22 14:33N 41°21' W 072°06'8 7.9
2015-May-22 13:34N 41°14' W 072°09'6 6.2
2015-May-22 12:33N 41°09' W 072°14'8 8.3
2015-May-22 11:33N 41°16' W 072°08'6 5.8
2015-May-22 10:34N 41°21' W 072°06'0 0.0
2015-May-22 00:15N 41°21' W 072°06'710.7
2015-May-21 23:33N 41°14' W 072°09'7 6.7
2015-May-21 22:33N 41°09' W 072°14'9 8.9
2015-May-21 21:34N 41°16' W 072°07'5 5.2
2015-May-21 20:33N 41°21' W 072°06'9 8.6
2015-May-21 19:33N 41°13' W 072°10'5 5.4
2015-May-21 18:33N 41°09' W 072°14'8 8.4
2015-May-21 17:33N 41°16' W 072°08'6 5.7
2015-May-21 16:33N 41°21' W 072°06'9 8.8
2015-May-21 15:33N 41°13' W 072°10'5 5.1
2015-May-21 14:33N 41°09' W 072°14'8 8.1
2015-May-21 13:34N 41°16' W 072°08'6 5.9
2015-May-21 12:33N 41°21' W 072°06'8 8.1
2015-May-21 11:34N 41°14' W 072°09'6 6.0
2015-May-21 10:33N 41°09' W 072°14'0 0.0
2015-May-21 00:28N 41°09' W 072°14'8 8.8
2015-May-20 23:33N 41°16' W 072°08'6 6.0
2015-May-20 22:33N 41°21' W 072°06'8 8.3
2015-May-20 21:33N 41°13' W 072°09'6 5.8
2015-May-20 20:33N 41°09' W 072°14'9 8.5
2015-May-20 19:33N 41°16' W 072°07'6 5.7
2015-May-20 18:33N 41°21' W 072°06'9 8.6
2015-May-20 17:33N 41°13' W 072°10'5 5.4
2015-May-20 16:33N 41°09' W 072°14'10 9.7
2015-May-20 15:33N 41°17' W 072°06'5 4.6
2015-May-20 14:33N 41°21' W 072°06'9 9.3
2015-May-20 13:33N 41°13' W 072°10'5 4.7
2015-May-20 12:33N 41°09' W 072°14'9 9.1
2015-May-20 11:33N 41°16' W 072°07'5 5.0
2015-May-20 10:33N 41°21' W 072°06'3 0.3
2015-May-20 00:34N 41°18' W 072°05'1211.5
2015-May-19 23:33N 41°09' W 072°14'0 0.1
2015-May-19 22:33N 41°09' W 072°14'9 8.6
2015-May-19 21:34N 41°16' W 072°07'6 5.5
2015-May-19 20:33N 41°21' W 072°06'8 8.4
2015-May-19 19:33N 41°14' W 072°10'6 5.6
2015-May-19 18:33N 41°09' W 072°14'9 8.7
2015-May-19 17:34N 41°16' W 072°07'5 5.5
2015-May-19 16:33N 41°21' W 072°06'9 8.9
2015-May-19 15:33N 41°13' W 072°10'5 5.2
2015-May-19 14:33N 41°09' W 072°14'9 9.2
2015-May-19 13:33N 41°16' W 072°07'5 5.0
2015-May-19 12:33N 41°21' W 072°06'8 8.2
2015-May-19 11:34N 41°14' W 072°09'6 5.9
2015-May-19 10:34N 41°09' W 072°14'0 0.0
2015-May-19 01:13N 41°09' W 072°14'2 2.4
2015-May-19 00:34N 41°11' W 072°14'1212.3
2015-May-18 23:34N 41°21' W 072°06'0 0.0
2015-May-18 22:34N 41°21' W 072°06'9 8.7
2015-May-18 21:34N 41°13' W 072°10'5 5.2
2015-May-18 20:33N 41°09' W 072°14'9 8.8
2015-May-18 19:33N 41°16' W 072°07'5 5.2
2015-May-18 18:33N 41°21' W 072°06'8 8.5
2015-May-18 17:34N 41°13' W 072°10'6 5.5
2015-May-18 16:33N 41°09' W 072°14'1010.0
2015-May-18 15:33N 41°17' W 072°06'4 4.3
2015-May-18 14:33N 41°21' W 072°06'9 8.7
2015-May-18 13:33N 41°13' W 072°10'5 5.2
2015-May-18 12:33N 41°09' W 072°14'10 9.5
2015-May-18 11:33N 41°17' W 072°06'5 4.7
2015-May-18 10:33N 41°21' W 072°06'0 0.0
2015-May-18 02:10N 41°21' W 072°06'5 8.5
2015-May-18 01:33N 41°16' W 072°07'9 9.1
2015-May-18 00:33N 41°09' W 072°14'  

Dump ship's entire track history